Time;durP1;ratioP1;P1;durP2;ratioP2;P2;SDS_P1;SDS_P2;PMS_P1;PMS_P2;Temp;Humidity;BMP_temperature;BMP_pressure;BME280_temperature;BME280_humidity;BME280_pressure;Samples;Min_cycle;Max_cycle;Signal;HPM_P1;HPM_P2
2023/10/17 00:01:20;;;;;;;2.80;2.00;;;3.30;99.90;;;2.57;100.00;97418.72;4993006;28;20037;-38
2023/10/17 00:03:46;;;;;;;3.83;2.38;;;3.30;99.90;;;2.56;100.00;97419.59;4997747;28;20965;-38
2023/10/17 00:06:22;;;;;;;3.22;2.15;;;3.30;99.90;;;2.56;100.00;97423.94;4991900;28;20041;-39
2023/10/17 00:08:50;;;;;;;3.95;2.28;;;3.30;99.90;;;2.55;100.00;97417.00;4992949;28;20034;-38
2023/10/17 00:11:17;;;;;;;3.78;2.10;;;3.20;99.90;;;2.49;100.00;97415.28;4994698;28;20042;-38
2023/10/17 00:13:59;;;;;;;4.47;2.38;;;3.30;99.90;;;2.50;100.00;97413.56;4995340;28;20040;-39
2023/10/17 00:16:30;;;;;;;4.68;2.42;;;3.20;99.90;;;2.45;100.00;97401.41;4992679;28;20092;-39
2023/10/17 00:19:04;;;;;;;5.43;2.47;;;3.20;99.90;;;2.42;100.00;97400.56;4991649;28;20125;-38
2023/10/17 00:21:32;;;;;;;3.55;2.60;;;3.20;99.90;;;2.41;100.00;97388.44;4984858;28;20038;-40
2023/10/17 00:23:59;;;;;;;3.72;2.50;;;3.20;99.90;;;2.32;100.00;97367.66;4993049;28;20029;-38
2023/10/17 00:26:25;;;;;;;2.63;2.28;;;3.20;99.90;;;2.38;100.00;97376.28;4993414;28;20030;-40
2023/10/17 00:28:53;;;;;;;4.65;2.30;;;3.20;99.90;;;2.36;100.00;97361.56;4997032;28;20038;-40
2023/10/17 00:31:21;;;;;;;3.17;2.40;;;3.20;99.90;;;2.38;100.00;97358.06;4997593;28;20065;-39
2023/10/17 00:33:58;;;;;;;4.53;2.40;;;3.20;99.90;;;2.34;100.00;97358.97;4993961;28;20091;-39
2023/10/17 00:36:26;;;;;;;3.58;2.13;;;3.10;99.90;;;2.34;100.00;97353.75;4996718;28;20042;-38
2023/10/17 00:38:54;;;;;;;3.78;2.40;;;3.10;99.90;;;2.33;100.00;97357.22;4989371;28;20128;-40
2023/10/17 00:41:33;;;;;;;3.35;2.10;;;3.10;99.90;;;2.29;100.00;97358.97;4992692;28;20037;-40
2023/10/17 00:43:59;;;;;;;5.20;2.30;;;3.10;99.90;;;2.25;100.00;97352.06;4996929;28;20045;-39
2023/10/17 00:46:25;;;;;;;4.53;2.00;;;3.00;99.90;;;2.20;100.00;97360.78;4993366;28;20030;-38
2023/10/17 00:48:52;;;;;;;2.72;2.28;;;3.00;99.90;;;2.17;100.00;97348.66;4994488;28;20521;-40
2023/10/17 00:51:21;;;;;;;3.83;2.60;;;2.90;99.90;;;2.13;100.00;97346.91;4995917;28;20034;-38
2023/10/17 00:53:47;;;;;;;5.05;2.50;;;2.90;99.90;;;2.09;100.00;97334.81;4992411;28;20075;-38
2023/10/17 00:56:13;;;;;;;4.32;2.72;;;2.80;99.90;;;1.98;100.00;97324.44;4997093;28;20042;-38
2023/10/17 00:58:42;;;;;;;4.55;2.22;;;2.80;99.90;;;2.04;100.00;97334.81;4993642;28;20038;-38
2023/10/17 01:01:16;;;;;;;4.25;2.75;;;2.80;99.90;;;1.95;100.00;97327.03;4997185;28;23583;-39
2023/10/17 01:03:45;;;;;;;3.35;2.22;;;2.70;99.90;;;1.97;100.00;97329.66;4994245;28;20080;-38
2023/10/17 01:09:08;;;;;;;4.10;2.50;;;2.70;99.90;;;1.80;100.00;97319.31;4994358;28;20034;-38
2023/10/17 01:11:38;;;;;;;3.65;2.65;;;2.60;99.90;;;1.83;100.00;97327.09;4991454;28;20026;-39
2023/10/17 01:14:05;;;;;;;4.45;2.70;;;2.60;99.90;;;1.79;100.00;97326.22;4995069;28;20498;-39
2023/10/17 01:16:34;;;;;;;4.40;2.80;;;2.60;99.90;;;1.79;100.00;97327.97;4992668;28;20112;-39
2023/10/17 01:19:04;;;;;;;4.13;2.85;;;2.50;99.90;;;1.78;100.00;97331.47;4995421;28;20038;-38
2023/10/17 01:21:30;;;;;;;6.10;2.78;;;2.50;99.90;;;1.75;100.00;97334.06;4992553;28;20096;-37
2023/10/17 01:23:57;;;;;;;4.65;2.60;;;2.50;99.90;;;1.79;100.00;97335.78;4993550;28;20030;-38
2023/10/17 01:26:23;;;;;;;4.07;2.65;;;2.50;99.90;;;1.79;100.00;97335.78;4995828;28;20094;-39
2023/10/17 01:28:52;;;;;;;5.40;2.90;;;2.50;99.90;;;1.82;100.00;97333.19;4995931;28;20041;-38
2023/10/17 01:31:25;;;;;;;4.70;2.55;;;2.60;99.90;;;1.73;100.00;97315.88;4997540;28;20034;-38
2023/10/17 01:33:55;;;;;;;4.35;2.80;;;2.60;99.90;;;1.75;100.00;97321.91;4995780;28;20124;-38
2023/10/17 01:36:24;;;;;;;4.78;2.90;;;2.60;99.90;;;1.85;100.00;97326.22;4993421;28;20114;-38
2023/10/17 01:38:49;;;;;;;6.13;2.90;;;2.60;99.90;;;1.84;100.00;97326.22;4992623;28;20111;-38
2023/10/17 01:41:20;;;;;;;4.05;2.67;;;2.60;99.90;;;1.84;100.00;97321.88;4991916;28;20498;-40
2023/10/17 01:43:50;;;;;;;4.30;2.88;;;2.60;99.90;;;1.85;100.00;97326.22;4992141;28;20052;-38
2023/10/17 01:46:22;;;;;;;5.65;2.90;;;2.60;99.90;;;1.75;100.00;97303.72;4993742;28;20030;-40
2023/10/17 01:48:49;;;;;;;;;;;2.60;99.90;;;1.83;100.00;97320.16;4993612;28;20506;-38
2023/10/17 01:51:16;;;;;;;6.25;2.72;;;2.60;99.90;;;1.85;100.00;97318.44;4994431;28;20256;-38
2023/10/17 01:53:43;;;;;;;3.35;2.65;;;2.60;99.90;;;1.83;100.00;97312.38;4993116;28;20037;-39
2023/10/17 01:56:15;;;;;;;5.00;3.08;;;2.60;99.90;;;1.83;100.00;97320.16;4991434;28;20108;-39
2023/10/17 01:58:48;;;;;;;4.35;3.20;;;2.60;99.90;;;1.84;100.00;97314.09;4994422;28;20445;-38
2023/10/17 02:01:24;;;;;;;4.47;2.80;;;2.60;99.90;;;1.86;100.00;97324.47;4995294;28;20568;-38
2023/10/17 02:04:01;;;;;;;4.25;2.92;;;2.60;99.90;;;1.85;100.00;97320.16;4987773;28;20049;-40
2023/10/17 02:06:28;;;;;;;3.38;2.55;;;2.60;99.90;;;1.81;100.00;97313.22;4991343;28;20033;-39
2023/10/17 02:08:55;;;;;;;4.20;2.92;;;2.60;99.90;;;1.79;100.00;97301.97;4994910;28;20052;-39
2023/10/17 02:11:23;;;;;;;4.20;2.72;;;2.60;99.90;;;1.80;100.00;97306.31;4996434;28;20030;-39
2023/10/17 02:13:57;;;;;;;4.78;2.95;;;2.60;99.90;;;1.80;100.00;97311.53;4993094;28;20776;-38
2023/10/17 02:16:33;;;;;;;4.68;3.10;;;2.60;99.90;;;1.78;100.00;97303.72;4990901;28;20068;-38
2023/10/17 02:18:59;;;;;;;4.43;2.95;;;2.50;99.90;;;1.78;100.00;97313.25;4995476;28;20045;-38
2023/10/17 02:21:28;;;;;;;4.97;2.92;;;2.50;99.90;;;1.72;100.00;97306.31;4992982;28;20667;-38
2023/10/17 02:23:54;;;;;;;5.13;2.63;;;2.50;99.90;;;1.70;100.00;97310.66;4991352;28;20214;-38
2023/10/17 02:26:22;;;;;;;4.15;2.80;;;2.50;99.90;;;1.70;100.00;97315.88;4993367;28;20116;-38
2023/10/17 02:28:58;;;;;;;5.00;2.95;;;2.50;99.90;;;1.68;100.00;97315.88;4992277;28;20484;-39
2023/10/17 02:31:29;;;;;;;3.83;2.55;;;2.40;99.90;;;1.54;100.00;97291.66;4993228;28;21437;-41
2023/10/17 02:33:56;;;;;;;4.38;2.85;;;2.40;99.90;;;1.60;100.00;97299.44;4990495;28;20576;-38
2023/10/17 02:36:22;;;;;;;3.97;2.80;;;2.40;99.90;;;1.64;100.00;97316.75;4989040;28;20591;-38
2023/10/17 02:38:48;;;;;;;4.97;3.17;;;2.40;99.90;;;1.68;100.00;97335.81;4994283;28;20520;-38
2023/10/17 02:41:28;;;;;;;4.90;3.10;;;2.50;99.90;;;1.69;100.00;97341.00;4988776;28;20041;-38
2023/10/17 02:43:54;;;;;;;4.65;3.10;;;2.40;99.90;;;1.61;100.00;97326.28;4992948;28;20026;-39
2023/10/17 02:46:26;;;;;;;4.85;2.85;;;2.50;99.90;;;1.66;100.00;97337.56;4992304;28;20111;-38
2023/10/17 02:48:53;;;;;;;4.55;2.85;;;2.40;99.90;;;1.62;100.00;97338.44;4989573;28;20057;-38
2023/10/17 02:53:53;;;;;;;4.30;2.97;;;2.40;99.90;;;1.63;100.00;97343.59;4989406;28;20050;-39
2023/10/17 02:56:28;;;;;;;4.40;2.85;;;2.40;99.90;;;1.57;100.00;97337.59;4992643;28;20038;-39
2023/10/17 02:59:04;;;;;;;5.43;2.70;;;2.40;99.90;;;1.63;100.00;97340.16;4976411;28;20489;-38
2023/10/17 03:01:31;;;;;;;4.68;2.97;;;2.40;99.90;;;1.64;100.00;97345.34;4987779;28;20030;-38
2023/10/17 03:04:10;;;;;;;4.57;2.72;;;2.40;99.90;;;1.64;100.00;97337.56;4991478;28;20471;-38
2023/10/17 03:06:41;;;;;;;3.67;2.58;;;2.40;99.90;;;1.49;100.00;97307.28;4985952;28;20061;-38
2023/10/17 03:11:50;;;;;;;6.78;2.83;;;2.50;99.90;;;1.69;100.00;97335.81;4993091;28;20338;-39
2023/10/17 03:14:22;;;;;;;4.20;3.08;;;2.50;99.90;;;1.71;100.00;97326.25;4997011;28;20029;-40
2023/10/17 03:16:52;;;;;;;5.67;3.03;;;2.50;99.90;;;1.70;100.00;97314.13;4983937;28;20096;-39
2023/10/17 03:19:26;;;;;;;5.13;3.22;;;2.50;99.90;;;1.78;100.00;97308.91;4994060;28;20116;-38
2023/10/17 03:21:58;;;;;;;4.00;2.90;;;2.60;99.90;;;1.82;100.00;97308.03;4987918;28;20222;-38
2023/10/17 03:24:39;;;;;;;4.53;2.90;;;2.60;99.90;;;1.85;100.00;97307.16;4993996;28;20060;-38
2023/10/17 03:27:07;;;;;;;4.87;3.10;;;2.60;99.90;;;1.83;100.00;97308.88;4990510;28;20149;-39
2023/10/17 03:29:36;;;;;;;4.82;3.25;;;2.60;99.90;;;1.72;100.00;97298.53;4984948;28;20038;-38
2023/10/17 03:32:04;;;;;;;4.88;2.50;;;2.60;99.90;;;1.85;100.00;97322.78;4991295;28;20038;-38
2023/10/17 03:34:37;;;;;;;6.25;2.78;;;2.60;99.90;;;1.84;100.00;97319.28;4991967;28;21217;-38
2023/10/17 03:43:01;;;;;;;4.80;2.80;;;2.70;99.90;;;1.80;100.00;97301.13;4983296;28;20048;-38
2023/10/17 03:45:34;;;;;;;4.80;3.00;;;2.70;99.90;;;1.92;100.00;97316.69;4992716;28;20072;-38
2023/10/17 03:48:04;;;;;;;4.63;2.90;;;2.70;99.90;;;1.91;100.00;97300.19;4996544;28;20044;-39
2023/10/17 03:53:15;;;;;;;6.30;2.95;;;2.70;99.90;;;1.98;100.00;97310.56;4990667;28;20410;-38
2023/10/17 03:55:48;;;;;;;4.30;2.85;;;2.80;99.90;;;2.00;100.00;97308.84;4989552;28;20111;-39
2023/10/17 04:00:55;;;;;;;4.20;2.70;;;2.80;99.90;;;2.01;100.00;97315.75;4986606;28;20055;-38
2023/10/17 04:03:21;;;;;;;4.35;2.95;;;2.80;99.90;;;2.00;100.00;97312.28;4993720;28;20078;-39
2023/10/17 04:06:00;;;;;;;4.97;3.20;;;2.80;99.90;;;1.99;100.00;97301.88;4989587;28;20026;-39
2023/10/17 04:08:31;;;;;;;5.78;3.90;;;2.80;99.90;;;2.06;100.00;97307.06;4987386;28;20320;-39
2023/10/17 04:13:42;;;;;;;4.07;2.97;;;2.90;99.90;;;2.09;100.00;97307.03;4989862;28;20041;-39
2023/10/17 04:16:16;;;;;;;4.75;3.08;;;2.90;99.90;;;2.11;100.00;97304.44;4995831;28;20034;-39
2023/10/17 04:18:45;;;;;;;5.45;3.00;;;2.90;99.90;;;2.12;100.00;97293.16;4986326;28;20528;-38
2023/10/17 04:23:59;;;;;;;2.75;2.30;;;3.00;99.90;;;2.29;100.00;97306.06;4993612;28;20032;-39
2023/10/17 04:26:28;;;;;;;4.10;2.75;;;3.10;99.90;;;2.32;100.00;97306.06;4996560;28;20375;-38
2023/10/17 04:29:01;;;;;;;4.22;2.70;;;3.10;99.90;;;2.28;100.00;97288.75;4997122;28;20030;-39
2023/10/17 04:31:30;;;;;;;4.88;2.80;;;3.10;99.90;;;2.30;100.00;97287.00;4992504;28;20505;-38
2023/10/17 04:33:58;;;;;;;5.15;3.03;;;3.20;99.90;;;2.36;100.00;97292.16;4987355;28;20042;-38
2023/10/17 04:36:26;;;;;;;4.13;2.88;;;3.20;99.90;;;2.41;100.00;97290.38;4990940;28;20080;-39
2023/10/17 04:39:11;;;;;;;5.72;2.92;;;3.20;99.90;;;2.43;100.00;97286.03;4988765;28;20502;-39
2023/10/17 04:44:25;;;;;;;4.63;3.13;;;3.20;99.90;;;2.47;100.00;97276.47;4992547;28;20115;-40
2023/10/17 04:49:30;;;;;;;4.88;3.50;;;3.30;99.90;;;2.52;100.00;97266.88;4990917;28;20040;-38
2023/10/17 04:52:06;;;;;;;7.13;3.58;;;3.30;99.90;;;2.57;100.00;97275.53;4988738;28;20513;-39
2023/10/17 04:57:07;;;;;;;5.35;2.97;;;3.40;99.90;;;2.65;100.00;97271.13;4994314;28;20041;-38
2023/10/17 06:19:21;;;;;;;5.20;2.97;;;4.40;99.90;;;3.66;100.00;97285.81;4989139;28;20057;-38
2023/10/17 06:30:27;;;;;;;4.28;2.00;;;4.50;99.90;;;3.76;100.00;97308.31;4994400;28;20095;-37
2023/10/17 06:33:16;;;;;;;5.55;2.88;;;4.50;99.90;;;3.76;100.00;97303.09;4995301;28;20072;-38
2023/10/17 06:35:44;;;;;;;3.85;2.90;;;4.50;99.90;;;3.71;100.00;97295.31;4998005;28;20026;-37
2023/10/17 06:38:10;;;;;;;5.35;3.42;;;4.50;99.90;;;3.83;100.00;97308.22;4997669;28;20041;-37
2023/10/17 06:40:45;;;;;;;6.35;3.70;;;4.60;99.90;;;3.87;100.00;97316.00;4995460;28;20445;-38
2023/10/17 06:43:27;;;;;;;5.60;3.22;;;4.60;99.90;;;3.82;100.00;97295.19;4997823;28;20029;-39
2023/10/17 06:46:11;;;;;;;4.72;3.20;;;4.70;99.90;;;4.00;100.00;97312.38;4994811;28;20556;-38
2023/10/17 06:48:37;;;;;;;3.95;3.10;;;4.70;99.90;;;4.00;100.00;97318.47;4994950;28;20392;-37
2023/10/17 06:53:48;;;;;;;4.68;3.17;;;4.80;99.90;;;4.13;100.00;97324.41;4994887;28;20116;-38
2023/10/17 06:56:16;;;;;;;4.38;2.72;;;4.80;99.90;;;4.21;100.00;97327.75;4996728;28;20081;-37
2023/10/17 06:58:42;;;;;;;9.65;3.03;;;4.90;99.90;;;4.28;100.00;97325.09;4996917;28;20543;-39
2023/10/17 07:01:24;;;;;;;5.72;3.13;;;5.00;99.90;;;4.28;100.00;97304.19;4994350;28;20105;-38
2023/10/17 07:03:54;;;;;;;7.75;3.30;;;5.10;99.90;;;4.41;100.00;97316.19;4993625;28;20022;-37
2023/10/17 07:06:24;;;;;;;4.72;3.30;;;5.10;99.90;;;4.46;100.00;97314.38;4995642;28;20204;-37
2023/10/17 07:08:51;;;;;;;7.85;3.50;;;5.20;99.90;;;4.46;100.00;97297.84;4994202;28;20505;-38
2023/10/17 07:16:34;;;;;;;6.20;3.85;;;5.40;99.90;;;4.85;100.00;97311.22;4996098;28;20357;-38
2023/10/17 07:19:09;;;;;;;5.22;3.45;;;5.50;99.90;;;4.91;100.00;97311.97;4996999;28;20037;-37
2023/10/17 07:21:55;;;;;;;7.22;3.70;;;5.60;99.90;;;5.00;100.00;97305.72;4998384;28;20042;-38
2023/10/17 07:24:23;;;;;;;4.70;3.22;;;5.70;99.90;;;5.11;100.00;97295.94;4998474;28;20045;-37
2023/10/17 07:26:54;;;;;;;6.28;3.95;;;5.80;99.90;;;5.21;100.00;97296.66;4998894;28;20402;-39
2023/10/17 07:29:23;;;;;;;6.40;3.72;;;5.90;99.90;;;5.29;100.00;97300.03;4997431;28;20041;-38
2023/10/17 07:31:54;;;;;;;7.78;4.45;;;6.00;99.90;;;5.30;100.00;97288.66;4998014;28;20041;-38
2023/10/17 07:34:23;;;;;;;9.60;4.90;;;6.10;99.90;;;5.45;100.00;97294.50;4994416;28;20160;-38
2023/10/17 07:36:58;;;;;;;8.38;5.05;;;6.20;99.90;;;5.55;100.00;97296.94;5001174;28;20133;-38
2023/10/17 07:41:54;;;;;;;9.07;4.93;;;6.30;99.90;;;5.70;100.00;97289.69;4995477;28;20041;-38
2023/10/17 07:44:29;;;;;;;7.25;4.60;;;6.40;99.90;;;5.61;100.00;97261.94;4995216;28;20021;-38
2023/10/17 07:49:41;;;;;;;12.73;4.93;;;6.60;99.90;;;6.06;100.00;97295.97;4995345;28;20556;-38
2023/10/17 07:52:12;;;;;;;13.25;5.10;;;6.70;99.90;;;6.15;100.00;97292.28;4999024;28;20452;-38
2023/10/17 07:54:55;;;;;;;10.80;4.93;;;6.80;99.90;;;6.25;100.00;97287.72;4997687;28;20033;-38
2023/10/17 07:57:24;;;;;;;6.85;5.03;;;6.90;99.90;;;6.38;100.00;97294.41;4995938;28;20266;-37
2023/10/17 07:59:51;;;;;;;9.15;4.18;;;7.00;99.90;;;6.44;100.00;97272.47;4999595;28;20471;-39
2023/10/17 08:02:22;;;;;;;12.75;5.00;;;7.10;99.90;;;6.59;100.00;97281.75;4996168;28;20034;-38
2023/10/17 08:04:49;;;;;;;7.97;4.82;;;7.20;99.90;;;6.63;100.00;97267.69;5001476;28;20426;-38
2023/10/17 08:07:16;;;;;;;9.48;4.75;;;7.30;99.90;;;6.78;100.00;97283.03;4994746;28;20494;-38
2023/10/17 08:09:50;;;;;;;14.43;5.70;;;7.40;99.90;;;6.86;100.00;97278.47;4991946;28;20033;-38
2023/10/17 08:12:21;;;;;;;10.10;5.63;;;7.50;99.90;;;6.93;100.00;97270.44;4992449;28;20168;-39
2023/10/17 08:15:05;;;;;;;9.20;5.90;;;7.60;99.90;;;7.02;100.00;97267.63;4998389;28;20088;-38
2023/10/17 08:17:34;;;;;;;8.80;5.63;;;7.70;99.90;;;7.21;100.00;97278.50;4996186;28;20542;-38
2023/10/17 08:20:38;;;;;;;11.23;4.97;;;7.90;99.90;;;7.36;100.00;97269.38;4995714;28;20321;-38
2023/10/17 08:22:55;;;;;;;12.15;5.97;;;8.00;99.90;;;7.56;100.00;97268.84;4995817;28;20058;-38
2023/10/17 08:25:32;;;;;;;9.15;5.75;;;8.20;99.90;;;7.62;100.00;97279.16;4996211;28;20030;-38
2023/10/17 08:27:58;;;;;;;10.15;6.22;;;8.30;99.90;;;7.67;100.00;97268.56;4986430;28;20572;-38
2023/10/17 08:30:25;;;;;;;9.93;5.90;;;8.40;99.90;;;7.77;100.00;97270.00;4999610;28;20348;-38
2023/10/17 08:35:48;;;;;;;9.63;5.57;;;8.50;99.90;;;7.95;100.00;97279.13;4994032;28;20124;-38
2023/10/17 08:38:14;;;;;;;9.75;5.32;;;8.60;99.90;;;8.10;100.00;97281.31;4995110;28;20772;-38
2023/10/17 08:40:40;;;;;;;10.77;6.18;;;8.70;99.90;;;8.18;100.00;97278.47;4998942;28;20049;-37
2023/10/17 08:43:14;;;;;;;8.85;6.18;;;8.80;99.90;;;8.20;100.00;97285.41;4997927;28;20455;-37
2023/10/17 08:45:41;;;;;;;9.65;5.72;;;8.80;99.90;;;8.27;100.00;97282.59;4999852;28;20042;-38
2023/10/17 08:48:11;;;;;;;8.90;6.03;;;8.90;99.90;;;8.31;100.00;97281.59;4999933;28;20382;-38
2023/10/17 08:50:40;;;;;;;10.27;5.82;;;9.00;99.90;;;8.35;100.00;97284.09;4997645;28;20080;-38
2023/10/17 08:53:13;;;;;;;13.82;5.70;;;9.00;99.90;;;8.47;100.00;97282.03;4999888;28;20038;-38
2023/10/17 08:55:40;;;;;;;12.65;6.55;;;9.10;99.90;;;8.44;100.00;97272.47;4999885;28;20365;-38
2023/10/17 08:58:08;;;;;;;11.95;6.35;;;9.20;99.90;;;8.55;100.00;97285.28;4995802;28;20383;-37
2023/10/17 09:00:49;;;;;;;12.35;6.03;;;9.20;99.90;;;8.62;100.00;97283.34;4999658;28;20026;-38
2023/10/17 09:03:37;;;;;;;10.30;6.05;;;9.20;99.90;;;8.73;100.00;97284.72;4995788;28;20438;-38
2023/10/17 09:06:07;;;;;;;9.10;6.35;;;9.30;99.90;;;8.72;99.42;97275.13;4995532;28;20025;-38
2023/10/17 09:11:29;;;;;;;13.32;7.57;;;9.40;99.90;;;8.76;100.00;97273.25;4997207;28;20620;-37
2023/10/17 09:14:24;;;;;;;9.52;6.60;;;9.40;99.90;;;8.82;100.00;97278.31;4996546;28;20061;-38
2023/10/17 09:17:21;;;;;;;10.23;6.72;;;9.40;99.90;;;8.88;97.19;97272.88;4995292;28;20046;-38
2023/10/17 09:19:50;;;;;;;10.50;5.88;;;9.50;99.90;;;9.03;99.97;97268.88;4996512;28;20072;-38
2023/10/17 09:22:18;;;;;;;12.48;7.35;;;9.60;99.90;;;9.11;96.73;97250.19;4995845;28;20029;-41
2023/10/17 09:24:48;;;;;;;15.65;7.45;;;9.80;99.90;;;9.28;93.68;97254.91;4998294;28;20410;-38
2023/10/17 09:27:14;;;;;;;11.60;7.57;;;9.90;99.90;;;9.31;94.80;97260.03;4994706;28;20054;-40
2023/10/17 09:29:49;;;;;;;10.35;6.65;;;9.90;99.90;;;9.41;96.84;97261.47;4996292;28;20148;-38
2023/10/17 09:32:37;;;;;;;11.07;6.82;;;10.00;99.90;;;9.49;95.35;97264.69;4997066;28;20050;-39
2023/10/17 09:35:10;;;;;;;11.52;6.18;;;10.10;99.90;;;9.54;92.92;97264.53;4998663;28;20034;-38
2023/10/17 09:37:39;;;;;;;10.05;7.07;;;10.20;99.90;;;9.55;96.03;97264.47;5000119;28;20524;-39
2023/10/17 09:40:12;;;;;;;12.27;7.38;;;10.20;99.90;;;9.64;93.67;97267.72;4994250;28;20041;-39
2023/10/17 09:42:45;;;;;;;11.63;7.50;;;10.30;99.90;;;9.75;89.45;97262.91;4997365;28;20470;-40
2023/10/17 09:45:13;;;;;;;14.05;8.15;;;10.40;99.90;;;9.80;92.20;97271.50;4998072;28;20118;-38
2023/10/17 09:47:44;;;;;;;13.00;8.10;;;10.40;99.90;;;9.76;95.87;97269.88;4997686;28;20502;-38
2023/10/17 09:50:16;;;;;;;12.48;8.13;;;10.50;99.90;;;9.88;91.67;97274.72;4998430;28;20262;-38
2023/10/17 09:52:45;;;;;;;11.10;7.25;;;10.60;99.90;;;10.05;92.48;97278.50;4995306;28;20038;-40
2023/10/17 09:55:15;;;;;;;11.10;8.07;;;10.70;99.90;;;10.15;89.03;97279.03;4997107;28;20022;-39
2023/10/17 09:57:46;;;;;;;12.25;7.55;;;10.80;99.90;;;10.12;86.16;97283.50;4996746;28;20550;-37
2023/10/17 10:00:36;;;;;;;14.70;8.68;;;10.80;99.90;;;10.13;91.69;97281.72;4997077;28;20041;-38
2023/10/17 10:03:04;;;;;;;17.65;8.10;;;10.80;99.90;;;10.19;87.32;97273.56;5011289;28;20045;-39
2023/10/17 10:05:29;;;;;;;12.90;7.25;;;10.80;99.90;;;10.29;89.25;97280.22;4995157;28;20030;-37
2023/10/17 10:08:32;;;;;;;13.55;8.07;;;10.80;99.90;;;10.28;87.31;97282.91;4996715;28;20738;-37
2023/10/17 10:10:59;;;;;;;;;;;10.90;99.90;;;10.27;87.74;97274.16;4996440;28;20045;-38
2023/10/17 10:13:25;;;;;;;14.93;8.18;;;10.90;99.90;;;10.31;85.76;97274.94;4997565;28;19914;-37
2023/10/17 10:16:01;;;;;;;15.10;8.45;;;10.90;99.90;;;10.29;89.34;97274.97;4996047;28;20053;-38
2023/10/17 10:18:35;;;;;;;12.05;7.43;;;10.90;99.90;;;10.37;87.84;97274.69;4996009;28;20164;-38
2023/10/17 10:21:07;;;;;;;13.02;8.55;;;11.00;99.90;;;10.40;88.79;97268.47;4996127;28;20083;-38
2023/10/17 10:23:35;;;;;;;15.23;8.68;;;11.00;99.90;;;10.39;87.19;97264.09;4995377;28;20286;-37
2023/10/17 10:26:14;;;;;;;15.73;8.52;;;11.10;99.90;;;10.61;86.93;97277.31;4995705;28;20490;-38
2023/10/17 10:28:43;;;;;;;16.27;8.30;;;11.30;99.90;;;10.72;83.78;97275.13;4996593;28;20081;-38
2023/10/17 10:31:24;;;;;;;11.38;7.60;;;11.30;99.90;;;10.80;84.10;97277.44;4997916;28;20033;-38
2023/10/17 10:33:51;;;;;;;13.75;8.15;;;11.40;99.90;;;10.83;83.80;97264.13;4993029;28;20037;-39
2023/10/17 10:36:24;;;;;;;10.38;7.68;;;11.50;99.90;;;10.91;87.10;97269.09;4996768;28;20120;-38
2023/10/17 10:38:53;;;;;;;13.40;7.68;;;11.50;99.90;;;10.94;84.04;97261.06;4995959;28;20057;-37
2023/10/17 10:41:23;;;;;;;12.32;8.25;;;11.60;99.90;;;11.02;83.54;97254.56;4995439;28;20056;-38
2023/10/17 10:43:57;;;;;;;17.63;8.85;;;11.70;99.90;;;11.09;86.21;97255.16;4996254;28;20072;-38
2023/10/17 10:46:23;;;;;;;13.88;8.07;;;11.70;99.90;;;11.18;84.49;97256.53;4996560;28;20115;-38
2023/10/17 10:48:56;;;;;;;11.15;8.00;;;11.80;99.90;;;11.23;80.06;97262.50;4995543;28;20936;-37
2023/10/17 10:51:24;;;;;;;12.95;7.70;;;11.90;99.90;;;11.27;79.19;97262.31;4997217;28;20497;-37
2023/10/17 10:53:56;;;;;;;12.25;7.97;;;11.90;99.90;;;11.25;80.42;97253.59;4995544;28;20523;-38
2023/10/17 10:56:24;;;;;;;14.17;7.60;;;11.90;99.90;;;11.34;76.83;97262.03;4998716;28;20030;-38
2023/10/17 10:58:53;;;;;;;12.50;7.45;;;11.90;99.90;;;11.30;77.06;97247.25;5001097;28;20061;-37
2023/10/17 11:01:20;;;;;;;13.77;8.65;;;11.90;99.90;;;11.34;75.44;97277.88;4997535;28;20029;-37
2023/10/17 11:03:47;;;;;;;11.45;7.90;;;12.00;99.90;;;11.36;78.50;97268.13;4999142;28;20026;-37
2023/10/17 11:06:24;;;;;;;11.85;7.65;;;12.00;99.90;;;11.40;79.17;97261.81;4991807;28;20030;-38
2023/10/17 11:08:51;;;;;;;13.88;8.00;;;12.00;99.90;;;11.34;78.34;97254.13;4999495;28;20025;-37
2023/10/17 11:11:19;;;;;;;11.88;7.72;;;12.00;99.90;;;11.24;82.19;97262.44;4998872;28;20034;-37
2023/10/17 11:13:54;;;;;;;11.13;7.35;;;12.00;99.90;;;11.31;80.90;97256.91;4998561;28;20065;-37
2023/10/17 11:16:25;;;;;;;15.05;7.53;;;12.00;99.90;;;11.35;79.70;97247.94;4998250;28;20419;-37
2023/10/17 11:18:51;;;;;;;12.40;8.35;;;12.00;99.90;;;11.40;80.63;97252.09;5002312;28;20557;-37
2023/10/17 11:21:20;;;;;;;12.95;7.80;;;12.00;99.90;;;11.48;84.30;97258.81;4999048;28;20034;-37
2023/10/17 11:23:55;;;;;;;10.27;7.47;;;12.10;99.90;;;11.52;81.53;97255.13;5004969;28;20124;-37
2023/10/17 11:26:25;;;;;;;11.07;7.30;;;12.20;99.90;;;11.64;83.53;97254.59;4996408;28;20034;-38
2023/10/17 11:28:52;;;;;;;13.95;8.85;;;12.30;99.90;;;11.55;81.02;97245.28;5006133;28;20257;-38
2023/10/17 11:31:22;;;;;;;11.43;7.88;;;12.30;99.90;;;11.54;79.07;97251.50;4997381;28;20077;-37
2023/10/17 11:34:04;;;;;;;11.68;8.07;;;12.20;99.90;;;11.45;78.90;97242.19;4997522;28;20353;-38
2023/10/17 11:36:45;;;;;;;12.00;8.50;;;12.30;99.90;;;11.48;80.17;97235.91;4996241;28;20095;-37
2023/10/17 11:39:15;;;;;;;12.68;8.13;;;12.30;99.90;;;11.55;82.73;97228.59;4998939;28;20498;-37
2023/10/17 11:41:54;;;;;;;12.35;7.70;;;12.30;99.90;;;11.73;82.44;97232.22;4996700;28;20038;-38
2023/10/17 11:44:24;;;;;;;15.35;8.43;;;12.40;99.90;;;11.78;81.76;97228.44;4993224;28;20060;-39
2023/10/17 11:47:03;;;;;;;13.93;7.88;;;12.40;99.90;;;11.80;81.62;97226.56;4998548;28;20030;-37
2023/10/17 11:49:35;;;;;;;9.95;7.72;;;12.50;99.90;;;11.81;76.81;97225.66;4996580;28;20033;-38
2023/10/17 11:52:04;;;;;;;13.00;7.95;;;12.40;99.90;;;11.78;80.01;97230.22;4999633;28;20029;-38
2023/10/17 11:54:31;;;;;;;12.32;7.78;;;12.40;99.90;;;11.65;78.63;97224.63;4996110;28;20073;-39
2023/10/17 11:57:12;;;;;;;12.43;7.53;;;12.30;99.90;;;11.68;81.60;97231.53;4999984;28;20026;-38
2023/10/17 11:59:38;;;;;;;11.15;7.72;;;12.30;99.90;;;11.62;82.03;97228.25;4997493;28;20037;-37
2023/10/17 12:02:04;;;;;;;10.85;7.70;;;12.30;99.90;;;11.57;80.94;97219.66;4994577;28;20026;-39
2023/10/17 12:04:30;;;;;;;13.60;7.78;;;12.20;99.90;;;11.54;82.79;97200.44;4998704;28;20359;-38
2023/10/17 12:06:56;;;;;;;10.02;6.82;;;12.20;99.90;;;11.65;82.55;97206.13;4999512;28;20552;-38
2023/10/17 12:11:53;;;;;;;10.73;7.78;;;12.30;99.90;;;11.70;82.45;97211.19;4995620;28;20268;-37
2023/10/17 12:14:20;;;;;;;12.20;8.55;;;12.30;99.90;;;11.73;88.38;97192.56;4994977;28;20034;-38
2023/10/17 12:16:58;;;;;;;15.88;8.63;;;12.40;99.90;;;11.84;83.02;97209.69;4990561;28;20046;-38
2023/10/17 12:19:26;;;;;;;10.20;7.78;;;12.40;99.90;;;11.83;82.17;97197.38;4994046;28;20132;-40
2023/10/17 12:21:53;;;;;;;11.77;7.80;;;12.50;99.90;;;11.89;81.02;97196.25;4988745;28;20036;-37
2023/10/17 12:24:24;;;;;;;13.00;7.85;;;12.50;99.90;;;11.97;81.37;97182.69;4993256;28;20477;-40
2023/10/17 12:26:50;;;;;;;11.88;8.38;;;12.50;99.90;;;11.92;83.31;97184.72;4999256;28;20034;-37
2023/10/17 12:29:19;;;;;;;12.40;8.02;;;12.50;99.90;;;11.75;87.06;97188.06;5000177;28;20386;-39
2023/10/17 12:31:46;;;;;;;12.00;8.00;;;12.30;99.90;;;11.46;85.19;97158.53;4999975;28;20053;-37
2023/10/17 12:34:15;;;;;;;11.80;7.88;;;12.10;99.90;;;11.31;87.69;97167.16;4997621;28;20479;-38
2023/10/17 12:36:41;;;;;;;11.52;8.15;;;11.90;99.90;;;11.16;90.75;97158.97;4997434;28;20501;-39
2023/10/17 12:39:10;;;;;;;11.23;7.88;;;11.80;99.90;;;11.23;90.13;97176.25;4996450;28;20294;-39
2023/10/17 12:41:35;;;;;;;10.80;7.63;;;11.80;99.90;;;11.37;90.30;97170.38;4996231;28;20034;-37
2023/10/17 12:44:02;;;;;;;11.10;7.70;;;11.90;99.90;;;11.55;89.93;97166.06;4998883;28;20053;-38
2023/10/17 12:46:27;;;;;;;10.05;7.53;;;12.10;99.90;;;11.74;89.22;97163.44;4998934;28;20541;-37
2023/10/17 12:48:53;;;;;;;12.25;7.35;;;12.30;99.90;;;11.88;86.77;97160.19;4995267;28;20025;-37
2023/10/17 12:51:23;;;;;;;11.57;7.45;;;12.40;99.90;;;11.96;84.32;97155.44;4997234;28;20073;-38
2023/10/17 12:53:49;;;;;;;10.18;6.72;;;12.50;99.90;;;12.10;85.81;97151.28;4998030;28;20088;-38
2023/10/17 12:56:17;;;;;;;11.43;6.93;;;12.60;99.90;;;12.20;87.17;97147.25;4998968;28;20045;-38
2023/10/17 12:58:44;;;;;;;12.73;7.70;;;12.70;99.90;;;12.17;82.33;97142.16;4994421;28;20962;-38
2023/10/17 13:01:12;;;;;;;12.05;7.50;;;12.70;99.90;;;12.26;85.28;97169.91;4992722;28;20041;-38